createdAt,value
2018-11-25T00:01:25.761Z,8.03
2018-11-25T00:03:54.081Z,8.33
2018-11-25T00:06:22.319Z,8.30
2018-11-25T00:08:50.700Z,8.20
2018-11-25T00:11:18.973Z,8.30
2018-11-25T00:13:47.217Z,8.23
2018-11-25T00:16:15.473Z,9.50
2018-11-25T00:18:43.699Z,9.30
2018-11-25T00:21:11.948Z,9.17
2018-11-25T00:23:40.177Z,8.83
2018-11-25T00:26:08.396Z,8.53
2018-11-25T00:28:36.641Z,8.50
2018-11-25T00:31:09.675Z,8.17
2018-11-25T00:33:33.117Z,9.37
2018-11-25T00:36:01.361Z,8.60
2018-11-25T00:38:29.580Z,9.67
2018-11-25T00:40:57.823Z,9.27
2018-11-25T00:43:26.055Z,8.87
2018-11-25T00:45:54.298Z,11.20
2018-11-25T00:48:22.537Z,9.93
2018-11-25T00:50:50.769Z,10.00
2018-11-25T00:53:18.973Z,9.67
2018-11-25T00:55:47.207Z,9.90
2018-11-25T00:58:15.498Z,10.00
2018-11-25T01:00:43.728Z,10.37
2018-11-25T01:03:11.960Z,10.13
2018-11-25T01:05:41.000Z,9.80
2018-11-25T01:08:09.244Z,8.53
2018-11-25T01:10:37.502Z,9.80
2018-11-25T01:13:05.780Z,9.30
2018-11-25T01:15:34.009Z,9.53
2018-11-25T01:18:02.273Z,10.30
2018-11-25T01:20:30.497Z,10.87
2018-11-25T01:22:58.749Z,10.80
2018-11-25T01:25:27.061Z,9.67
2018-11-25T01:27:55.293Z,10.60
2018-11-25T01:30:23.549Z,10.93
2018-11-25T01:32:51.857Z,10.33
2018-11-25T01:35:20.258Z,9.43
2018-11-25T01:37:48.499Z,11.73
2018-11-25T01:40:17.652Z,12.23
2018-11-25T01:42:45.926Z,11.20
2018-11-25T01:45:15.328Z,11.20
2018-11-25T01:47:43.650Z,11.60
2018-11-25T01:50:15.573Z,10.33
2018-11-25T01:52:43.872Z,10.77
2018-11-25T01:55:13.958Z,11.10
2018-11-25T01:57:42.185Z,10.80
2018-11-25T02:00:19.228Z,12.73
2018-11-25T02:02:47.520Z,13.57
2018-11-25T02:05:15.798Z,13.00
2018-11-25T02:07:44.058Z,12.07
2018-11-25T02:10:13.466Z,11.40
2018-11-25T02:12:41.717Z,11.23
2018-11-25T02:15:11.119Z,11.50
2018-11-25T02:17:39.368Z,10.90
2018-11-25T02:20:25.262Z,13.70
2018-11-25T02:22:54.837Z,11.93
2018-11-25T02:25:23.103Z,17.80
2018-11-25T02:27:51.442Z,11.40
2018-11-25T02:30:19.697Z,10.20
2018-11-25T02:32:47.958Z,10.43
2018-11-25T02:35:16.839Z,11.03
2018-11-25T02:37:45.150Z,10.43
2018-11-25T02:40:17.512Z,10.63
2018-11-25T02:42:45.792Z,11.13
2018-11-25T02:45:18.782Z,10.60
2018-11-25T02:47:47.145Z,11.93
2018-11-25T02:50:23.436Z,11.80
2018-11-25T02:52:51.816Z,11.07
2018-11-25T02:55:22.098Z,11.60
2018-11-25T02:57:50.397Z,12.03
2018-11-25T03:00:18.660Z,10.90
2018-11-25T03:02:46.897Z,11.60
2018-11-25T03:05:15.405Z,11.40
2018-11-25T03:07:43.812Z,10.67
2018-11-25T03:10:12.273Z,12.53
2018-11-25T03:12:40.599Z,12.37
2018-11-25T03:15:13.181Z,12.20
2018-11-25T03:17:41.500Z,12.27
2018-11-25T03:20:12.821Z,11.40
2018-11-25T03:22:41.044Z,12.60
2018-11-25T03:25:10.734Z,12.03
2018-11-25T03:27:38.995Z,11.23
2018-11-25T03:30:12.218Z,10.83
2018-11-25T03:32:47.791Z,11.03
2018-11-25T03:35:16.036Z,10.87
2018-11-25T03:37:44.270Z,11.20
2018-11-25T03:40:15.333Z,11.30
2018-11-25T03:42:43.546Z,12.63
2018-11-25T03:45:14.700Z,10.50
2018-11-25T03:47:42.920Z,10.50
2018-11-25T03:50:11.964Z,11.30
2018-11-25T03:52:40.169Z,11.20
2018-11-25T03:55:12.263Z,10.27
2018-11-25T03:57:40.509Z,10.53
2018-11-25T04:00:13.662Z,10.80
2018-11-25T04:02:41.883Z,11.67
2018-11-25T04:05:11.220Z,10.87
2018-11-25T04:07:39.652Z,10.73
2018-11-25T04:10:10.493Z,10.33
2018-11-25T04:12:38.711Z,11.77
2018-11-25T04:15:09.351Z,10.23
2018-11-25T04:17:37.595Z,10.80
2018-11-25T04:20:08.658Z,9.43
2018-11-25T04:22:37.324Z,10.30
2018-11-25T04:25:07.140Z,10.37
2018-11-25T04:27:35.379Z,10.47
2018-11-25T04:30:05.079Z,10.37
2018-11-25T04:32:33.295Z,9.93
2018-11-25T04:35:01.530Z,10.47
2018-11-25T04:37:29.800Z,10.00
2018-11-25T04:39:58.020Z,9.90
2018-11-25T04:42:26.254Z,9.63
2018-11-25T04:44:54.461Z,9.00
2018-11-25T04:47:22.706Z,10.13
2018-11-25T04:49:50.937Z,10.03
2018-11-25T04:52:19.252Z,9.43
2018-11-25T04:54:47.465Z,9.20
2018-11-25T04:57:15.684Z,9.90
2018-11-25T04:59:43.940Z,10.20
2018-11-25T05:02:12.168Z,10.67
2018-11-25T05:04:40.392Z,10.90
2018-11-25T05:07:08.632Z,9.93
2018-11-25T05:09:36.841Z,10.93
2018-11-25T05:12:05.127Z,11.20
2018-11-25T05:14:33.322Z,12.27
2018-11-25T05:17:01.537Z,11.10
2018-11-25T05:19:29.751Z,12.20
2018-11-25T05:21:58.058Z,12.60
2018-11-25T05:24:26.263Z,12.77
2018-11-25T05:26:54.527Z,12.73
2018-11-25T05:29:22.760Z,12.77
2018-11-25T05:31:50.966Z,12.90
2018-11-25T05:34:19.211Z,13.40
2018-11-25T05:36:47.435Z,13.50
2018-11-25T05:39:15.668Z,14.13
2018-11-25T05:41:43.928Z,14.27
2018-11-25T05:44:12.158Z,13.33
2018-11-25T05:46:40.360Z,14.47
2018-11-25T05:49:08.577Z,14.57
2018-11-25T05:51:36.827Z,13.77
2018-11-25T05:54:05.051Z,13.37
2018-11-25T05:56:33.282Z,14.37
2018-11-25T05:59:01.504Z,13.47
2018-11-25T06:01:29.734Z,13.10
2018-11-25T06:03:57.988Z,14.57
2018-11-25T06:06:26.192Z,12.70
2018-11-25T06:08:54.450Z,13.93
2018-11-25T06:11:22.655Z,14.63
2018-11-25T06:13:50.924Z,12.70
2018-11-25T06:16:19.160Z,14.33
2018-11-25T06:18:47.408Z,14.43
2018-11-25T06:21:15.669Z,14.90
2018-11-25T06:23:43.868Z,15.30
2018-11-25T06:26:12.075Z,16.30
2018-11-25T06:28:40.276Z,16.30
2018-11-25T06:31:08.481Z,16.60
2018-11-25T06:33:36.707Z,17.23
2018-11-25T06:36:04.899Z,16.47
2018-11-25T06:38:33.127Z,15.83
2018-11-25T06:41:01.341Z,17.00
2018-11-25T06:43:29.568Z,17.20
2018-11-25T06:45:57.764Z,16.97
2018-11-25T06:48:26.033Z,17.63
2018-11-25T06:50:54.299Z,18.97
2018-11-25T06:53:22.548Z,17.17
2018-11-25T06:55:50.783Z,17.50
2018-11-25T06:58:18.984Z,17.70
2018-11-25T07:00:47.216Z,18.17
2018-11-25T07:03:15.447Z,17.80
2018-11-25T07:05:43.701Z,17.23
2018-11-25T07:08:11.916Z,17.23
2018-11-25T07:10:40.152Z,17.03
2018-11-25T07:13:08.428Z,15.73
2018-11-25T07:15:36.653Z,16.97
2018-11-25T07:18:04.933Z,17.07
2018-11-25T07:20:33.163Z,16.33
2018-11-25T07:23:01.410Z,16.43
2018-11-25T07:25:29.664Z,17.77
2018-11-25T07:27:57.904Z,15.70
2018-11-25T07:30:27.183Z,16.53
2018-11-25T07:32:55.518Z,16.53
2018-11-25T07:35:26.682Z,15.70
2018-11-25T07:37:54.953Z,17.30
2018-11-25T07:40:23.964Z,17.67
2018-11-25T07:42:52.418Z,15.60
2018-11-25T07:45:29.670Z,15.97
2018-11-25T07:47:49.931Z,15.63
2018-11-25T07:50:18.193Z,16.57
2018-11-25T07:52:47.273Z,15.10
2018-11-25T07:55:18.881Z,16.40
2018-11-25T07:57:47.862Z,18.80
2018-11-25T08:00:19.237Z,16.70
2018-11-25T08:02:47.588Z,18.40
2018-11-25T08:05:18.528Z,19.30
2018-11-25T08:07:46.804Z,19.27
2018-11-25T08:10:15.688Z,19.27
2018-11-25T08:12:44.374Z,17.43
2018-11-25T08:15:14.640Z,19.60
2018-11-25T08:17:42.913Z,18.07
2018-11-25T08:20:15.040Z,18.30
2018-11-25T08:22:43.425Z,93.90
2018-11-25T08:25:12.897Z,18.60
2018-11-25T08:27:41.141Z,18.43
2018-11-25T08:30:16.848Z,18.93
2018-11-25T08:32:45.084Z,18.77
2018-11-25T08:35:14.096Z,18.70
2018-11-25T08:37:42.291Z,18.30
2018-11-25T08:40:19.254Z,18.80
2018-11-25T08:42:47.630Z,18.97
2018-11-25T08:45:15.884Z,18.20
2018-11-25T08:47:44.573Z,17.33
2018-11-25T08:50:13.795Z,19.57
2018-11-25T08:52:42.971Z,19.37
2018-11-25T08:55:13.089Z,18.50
2018-11-25T08:57:41.706Z,18.63
2018-11-25T09:00:15.907Z,19.73
2018-11-25T09:02:44.166Z,19.57
2018-11-25T09:05:13.264Z,20.20
2018-11-25T09:07:41.575Z,19.30
2018-11-25T09:10:12.887Z,18.30
2018-11-25T09:12:41.216Z,19.13
2018-11-25T09:15:12.937Z,19.50
2018-11-25T09:17:41.764Z,18.77
2018-11-25T09:20:12.910Z,21.57
2018-11-25T09:22:41.288Z,18.17
2018-11-25T09:25:11.989Z,19.17
2018-11-25T09:27:40.220Z,19.17
2018-11-25T09:30:13.079Z,18.47
2018-11-25T09:32:41.374Z,18.97
2018-11-25T09:35:09.781Z,18.17
2018-11-25T09:37:38.138Z,19.47
2018-11-25T09:40:17.275Z,17.93
2018-11-25T09:42:45.915Z,16.70
2018-11-25T09:45:14.892Z,17.17
2018-11-25T09:47:43.461Z,17.63
2018-11-25T09:50:13.693Z,17.53
2018-11-25T09:52:41.927Z,17.30
2018-11-25T09:55:14.137Z,17.53
2018-11-25T09:57:43.561Z,17.43
2018-11-25T10:00:15.389Z,17.50
2018-11-25T10:02:43.714Z,15.47
2018-11-25T10:05:11.971Z,17.13
2018-11-25T10:07:40.220Z,18.50
2018-11-25T10:10:16.181Z,16.80
2018-11-25T10:12:44.677Z,18.40
2018-11-25T10:15:13.976Z,16.63
2018-11-25T10:17:42.260Z,17.23
2018-11-25T10:20:12.620Z,18.10
2018-11-25T10:22:40.872Z,18.70
2018-11-25T10:25:10.461Z,17.57
2018-11-25T10:27:43.636Z,17.40
2018-11-25T10:30:15.941Z,18.07
2018-11-25T10:32:44.603Z,18.73
2018-11-25T10:35:12.826Z,18.17
2018-11-25T10:37:41.102Z,18.77
2018-11-25T10:40:11.750Z,18.70
2018-11-25T10:42:40.048Z,19.57
2018-11-25T10:45:12.456Z,20.20
2018-11-25T10:47:40.855Z,19.87
2018-11-25T10:50:14.231Z,19.17
2018-11-25T10:52:42.480Z,21.17
2018-11-25T10:55:11.676Z,21.27
2018-11-25T10:57:40.637Z,22.03
2018-11-25T11:00:48.565Z,20.80
2018-11-25T11:04:25.896Z,23.10
2018-11-25T11:06:59.629Z,22.17
2018-11-25T11:09:27.970Z,22.70
2018-11-25T11:11:56.337Z,23.17
2018-11-25T11:14:25.715Z,23.80
2018-11-25T11:16:54.150Z,23.33
2018-11-25T11:19:22.334Z,23.00
2018-11-25T11:21:50.634Z,23.17
2018-11-25T11:24:18.982Z,24.33
2018-11-25T11:26:48.674Z,23.53
2018-11-25T11:29:15.608Z,23.10
2018-11-25T11:31:44.019Z,22.90
2018-11-25T11:34:12.340Z,23.07
2018-11-25T11:36:40.789Z,21.77
2018-11-25T11:39:10.039Z,22.83
2018-11-25T11:41:38.577Z,22.53
2018-11-25T11:44:06.840Z,21.77
2018-11-25T11:46:35.044Z,21.87
2018-11-25T11:49:03.289Z,21.63
2018-11-25T11:51:31.516Z,22.93
2018-11-25T11:53:59.812Z,23.37
2018-11-25T11:56:28.180Z,22.07
2018-11-25T11:58:56.386Z,22.13
2018-11-25T12:01:24.675Z,24.10
2018-11-25T12:03:52.967Z,22.37
2018-11-25T12:06:21.205Z,22.90
2018-11-25T12:08:49.440Z,22.43
2018-11-25T12:11:17.730Z,22.00
2018-11-25T12:13:45.977Z,21.73
2018-11-25T12:16:14.238Z,23.17
2018-11-25T12:18:42.486Z,23.07
2018-11-25T12:21:10.696Z,21.47
2018-11-25T12:23:39.100Z,22.40
2018-11-25T12:26:07.405Z,23.00
2018-11-25T12:28:35.629Z,23.17
2018-11-25T12:31:04.326Z,23.43
2018-11-25T12:33:32.570Z,23.20
2018-11-25T12:36:00.971Z,22.97
2018-11-25T12:38:29.187Z,22.50
2018-11-25T12:40:57.528Z,22.57
2018-11-25T12:43:25.910Z,21.67
2018-11-25T12:45:54.584Z,23.70
2018-11-25T12:48:22.979Z,21.10
2018-11-25T12:50:51.228Z,22.57
2018-11-25T12:53:19.501Z,21.30
2018-11-25T12:55:47.791Z,21.33
2018-11-25T12:58:16.024Z,24.03
2018-11-25T13:00:45.939Z,21.30
2018-11-25T13:03:14.208Z,23.00
2018-11-25T13:05:46.262Z,21.33
2018-11-25T13:08:11.828Z,22.27
2018-11-25T13:10:40.162Z,22.03
2018-11-25T13:13:09.776Z,20.53
2018-11-25T13:15:38.108Z,20.73
2018-11-25T13:18:07.517Z,20.83
2018-11-25T13:20:35.838Z,21.83
2018-11-25T13:23:04.149Z,22.87
2018-11-25T13:25:32.391Z,20.97
2018-11-25T13:28:00.665Z,23.23
2018-11-25T13:30:30.225Z,21.17
2018-11-25T13:32:59.601Z,21.77
2018-11-25T13:35:29.354Z,21.63
2018-11-25T13:37:57.597Z,23.37
2018-11-25T13:40:25.889Z,21.50
2018-11-25T13:42:54.177Z,22.20
2018-11-25T13:45:22.460Z,22.50
2018-11-25T13:47:50.718Z,21.57
2018-11-25T13:50:19.024Z,22.23
2018-11-25T13:52:47.227Z,22.27
2018-11-25T13:55:17.790Z,22.63
2018-11-25T13:57:46.016Z,23.63
2018-11-25T14:00:20.888Z,20.93
2018-11-25T14:02:49.224Z,21.67
2018-11-25T14:05:17.502Z,21.47
2018-11-25T14:07:45.724Z,20.77
2018-11-25T14:10:16.552Z,20.17
2018-11-25T14:12:44.813Z,21.40
2018-11-25T14:15:13.115Z,21.13
2018-11-25T14:17:41.341Z,20.67
2018-11-25T14:20:10.218Z,21.13
2018-11-25T14:22:38.473Z,21.77
2018-11-25T14:25:10.428Z,22.07
2018-11-25T14:27:38.727Z,21.27
2018-11-25T14:30:13.880Z,20.13
2018-11-25T14:32:42.128Z,20.73
2018-11-25T14:35:11.954Z,21.13
2018-11-25T14:37:40.237Z,20.53
2018-11-25T14:40:13.219Z,22.13
2018-11-25T14:42:41.498Z,20.53
2018-11-25T14:45:11.188Z,20.37
2018-11-25T14:47:39.495Z,20.00
2018-11-25T14:50:11.938Z,22.90
2018-11-25T14:52:40.710Z,20.13
2018-11-25T14:55:11.172Z,20.13
2018-11-25T14:57:39.820Z,20.03
2018-11-25T15:00:14.136Z,18.80
2018-11-25T15:02:42.890Z,19.43
2018-11-25T15:05:15.602Z,19.40
2018-11-25T15:07:43.880Z,18.73
2018-11-25T15:10:12.113Z,19.30
2018-11-25T15:12:40.525Z,18.77
2018-11-25T15:15:10.796Z,19.77
2018-11-25T15:17:39.347Z,18.03
2018-11-25T15:20:10.336Z,19.07
2018-11-25T15:22:38.742Z,17.00
2018-11-25T15:25:09.398Z,18.17
2018-11-25T15:27:37.672Z,19.17
2018-11-25T15:30:08.645Z,18.90
2018-11-25T15:32:36.932Z,16.90
2018-11-25T15:35:07.477Z,17.23
2018-11-25T15:37:35.792Z,17.13
2018-11-25T15:40:04.641Z,16.93
2018-11-25T15:42:32.992Z,18.03
2018-11-25T15:45:01.293Z,16.93
2018-11-25T15:47:29.822Z,17.27
2018-11-25T15:49:58.339Z,16.17
2018-11-25T15:52:26.632Z,15.70
2018-11-25T15:54:54.908Z,15.33
2018-11-25T15:57:26.917Z,16.23
2018-11-25T15:59:58.344Z,16.00
2018-11-25T16:02:26.601Z,16.13
2018-11-25T16:04:54.912Z,16.53
2018-11-25T16:07:23.267Z,16.97
2018-11-25T16:09:51.569Z,15.47
2018-11-25T16:12:20.917Z,16.10
2018-11-25T16:14:49.280Z,16.47
2018-11-25T16:17:17.615Z,15.60
2018-11-25T16:19:46.170Z,15.37
2018-11-25T16:22:14.537Z,16.17
2018-11-25T16:24:42.949Z,15.37
2018-11-25T16:27:11.296Z,15.80
2018-11-25T16:29:39.842Z,15.47
2018-11-25T16:32:08.145Z,15.67
2018-11-25T16:34:36.650Z,16.37
2018-11-25T16:37:05.019Z,16.90
2018-11-25T16:39:33.314Z,15.73
2018-11-25T16:42:01.600Z,16.03
2018-11-25T16:44:29.969Z,15.63
2018-11-25T16:46:58.316Z,16.23
2018-11-25T16:49:26.644Z,15.50
2018-11-25T16:51:54.973Z,15.63
2018-11-25T16:54:23.301Z,15.83
2018-11-25T16:56:51.630Z,14.27
2018-11-25T16:59:19.951Z,15.27
2018-11-25T17:01:48.380Z,16.30
2018-11-25T17:04:16.652Z,14.50
2018-11-25T17:06:46.599Z,15.27
2018-11-25T17:09:14.867Z,14.90
2018-11-25T17:11:43.206Z,14.60
2018-11-25T17:14:11.505Z,14.70
2018-11-25T17:16:39.907Z,14.67
2018-11-25T17:19:08.258Z,14.80
2018-11-25T17:21:36.508Z,13.33
2018-11-25T17:24:04.849Z,13.60
2018-11-25T17:26:33.110Z,13.33
2018-11-25T17:29:01.476Z,12.57
2018-11-25T17:31:29.779Z,12.80
2018-11-25T17:33:58.102Z,12.53
2018-11-25T17:36:26.584Z,12.47
2018-11-25T17:38:54.937Z,13.60
2018-11-25T17:41:23.664Z,13.13
2018-11-25T17:43:52.052Z,12.73
2018-11-25T17:46:20.433Z,12.67
2018-11-25T17:48:48.759Z,13.70
2018-11-25T17:51:17.034Z,12.90
2018-11-25T17:53:45.293Z,13.47
2018-11-25T17:56:14.091Z,12.17
2018-11-25T17:58:42.764Z,12.43
2018-11-25T18:01:11.146Z,12.60
2018-11-25T18:03:39.561Z,12.33
2018-11-25T18:06:07.946Z,12.17
2018-11-25T18:08:36.419Z,13.80
2018-11-25T18:11:04.934Z,13.20
2018-11-25T18:13:35.647Z,13.00
2018-11-25T18:16:05.490Z,12.77
2018-11-25T18:18:50.237Z,11.37
2018-11-25T18:21:22.352Z,13.33
2018-11-25T18:23:50.608Z,12.27
2018-11-25T18:26:19.008Z,11.40
2018-11-25T18:28:47.354Z,12.47
2018-11-25T18:31:15.674Z,14.43
2018-11-25T18:33:44.007Z,12.13
2018-11-25T18:36:13.663Z,12.73
2018-11-25T18:38:42.032Z,12.17
2018-11-25T18:41:10.373Z,12.57
2018-11-25T18:43:38.709Z,12.40
2018-11-25T18:46:08.158Z,12.03
2018-11-25T18:48:38.644Z,11.27
2018-11-25T18:51:07.376Z,11.83
2018-11-25T18:53:35.701Z,12.07
2018-11-25T18:56:04.130Z,11.47
2018-11-25T18:58:32.445Z,12.73
2018-11-25T19:01:06.398Z,12.27
2018-11-25T19:03:34.909Z,11.70
2018-11-25T19:06:03.440Z,11.80
2018-11-25T19:08:31.784Z,12.67
2018-11-25T19:11:00.188Z,11.57
2018-11-25T19:13:28.545Z,12.07
2018-11-25T19:15:57.436Z,11.43
2018-11-25T19:18:26.387Z,11.53
2018-11-25T19:20:56.578Z,12.17
2018-11-25T19:23:25.718Z,11.50
2018-11-25T19:25:54.138Z,12.67
2018-11-25T19:28:22.906Z,12.37
2018-11-25T19:30:51.533Z,12.67
2018-11-25T19:33:19.787Z,12.73
2018-11-25T19:35:48.068Z,12.17
2018-11-25T19:38:16.512Z,11.67
2018-11-25T19:40:45.055Z,12.40
2018-11-25T19:43:13.456Z,11.10
2018-11-25T19:45:42.277Z,11.07
2018-11-25T19:48:10.900Z,11.40
2018-11-25T19:50:39.483Z,10.83
2018-11-25T19:53:10.294Z,10.87
2018-11-25T19:55:39.217Z,11.93
2018-11-25T19:58:08.070Z,11.03
2018-11-25T20:00:36.460Z,10.70
2018-11-25T20:03:04.944Z,11.03
2018-11-25T20:05:34.216Z,11.47
2018-11-25T20:08:03.164Z,11.17
2018-11-25T20:10:32.902Z,10.97
2018-11-25T20:13:03.325Z,10.03
2018-11-25T20:15:31.960Z,11.53
2018-11-25T20:18:00.489Z,12.43
2018-11-25T20:20:28.855Z,12.67
2018-11-25T20:22:57.236Z,12.67
2018-11-25T20:25:25.664Z,12.80
2018-11-25T20:27:56.617Z,12.13
2018-11-25T20:30:28.724Z,11.80
2018-11-25T20:33:02.540Z,13.17
2018-11-25T20:35:30.977Z,12.80
2018-11-25T20:38:04.672Z,11.80
2018-11-25T20:40:33.351Z,10.77
2018-11-25T20:43:01.968Z,11.63
2018-11-25T20:45:39.155Z,11.47
2018-11-25T20:48:03.948Z,11.83
2018-11-25T20:50:32.319Z,11.93
2018-11-25T20:53:06.194Z,11.00
2018-11-25T20:55:34.508Z,11.63
2018-11-25T20:58:02.931Z,11.23
2018-11-25T21:00:31.326Z,11.27
2018-11-25T21:02:59.875Z,10.93
2018-11-25T21:05:28.360Z,10.57
2018-11-25T21:07:56.733Z,10.77
2018-11-25T21:10:26.185Z,10.50
2018-11-25T21:12:54.505Z,11.63
2018-11-25T21:15:22.772Z,11.60
2018-11-25T21:17:51.069Z,10.23
2018-11-25T21:20:22.044Z,11.30
2018-11-25T21:22:50.456Z,11.27
2018-11-25T21:25:20.747Z,11.50
2018-11-25T21:27:49.152Z,10.43
2018-11-25T21:30:20.328Z,10.70
2018-11-25T21:32:49.714Z,10.40
2018-11-25T21:35:18.727Z,9.33
2018-11-25T21:37:46.991Z,10.30
2018-11-25T21:40:21.176Z,11.90
2018-11-25T21:42:49.441Z,10.30
2018-11-25T21:45:18.592Z,9.83
2018-11-25T21:47:47.364Z,10.30
2018-11-25T21:50:19.587Z,9.77
2018-11-25T21:52:47.844Z,9.33
2018-11-25T21:55:16.976Z,8.83
2018-11-25T21:57:45.286Z,9.10
2018-11-25T22:00:16.698Z,9.47
2018-11-25T22:02:45.041Z,10.53
2018-11-25T22:05:14.431Z,10.07
2018-11-25T22:07:42.809Z,10.73
2018-11-25T22:10:12.376Z,9.83
2018-11-25T22:12:41.441Z,10.83
2018-11-25T22:15:14.777Z,11.20
2018-11-25T22:17:43.062Z,10.67
2018-11-25T22:20:12.664Z,12.07
2018-11-25T22:22:41.046Z,10.70
2018-11-25T22:25:10.424Z,10.17
2018-11-25T22:27:38.817Z,13.23
2018-11-25T22:30:26.510Z,10.00
2018-11-25T22:32:54.868Z,9.73
2018-11-25T22:35:23.607Z,9.70
2018-11-25T22:37:51.895Z,9.80
2018-11-25T22:40:20.476Z,10.27
2018-11-25T22:42:49.495Z,9.67
2018-11-25T22:45:18.812Z,9.50
2018-11-25T22:47:47.110Z,10.27
2018-11-25T22:50:18.377Z,9.37
2018-11-25T22:52:46.724Z,9.97
2018-11-25T22:55:20.219Z,10.57
2018-11-25T22:57:48.524Z,9.27
2018-11-25T23:00:19.802Z,10.03
2018-11-25T23:02:48.591Z,9.57
2018-11-25T23:06:26.965Z,9.20
2018-11-25T23:08:55.239Z,10.23
2018-11-25T23:11:23.490Z,9.33
2018-11-25T23:13:51.762Z,9.60
2018-11-25T23:16:20.048Z,9.47
2018-11-25T23:18:48.315Z,9.03
2018-11-25T23:21:16.779Z,9.97
2018-11-25T23:23:45.100Z,10.67
2018-11-25T23:26:13.472Z,9.53
2018-11-25T23:28:42.054Z,9.67
2018-11-25T23:31:10.300Z,10.20
2018-11-25T23:33:38.547Z,10.63
2018-11-25T23:36:06.934Z,10.57
2018-11-25T23:38:35.163Z,9.97
2018-11-25T23:41:03.487Z,10.97
2018-11-25T23:43:31.751Z,10.27
2018-11-25T23:46:00.077Z,10.53
2018-11-25T23:48:28.685Z,10.07
2018-11-25T23:50:56.943Z,9.57
2018-11-25T23:53:25.216Z,10.57
2018-11-25T23:55:53.787Z,9.90
2018-11-25T23:58:22.042Z,11.43
